Meteosat more information blitzortung!


Radar lluvias  rain snow radar


Website of another weatherstation

Website of another weatherstation



No requiere especial atención con respecto al clima.    No hay Alarmas

Pagina Historial Weather Underground texto

Diario Resumen Marzo 24, 2019 Unidades:  Métrico    impérial   Tanto
« Anterior Dia
Siguiente Dia »
Diario Semana Mensual Anual Personalizada
  Actual: Alto: Baja: Media:
Temperatura: -15.6 °C -17.8 °C -15.6 °C -14.7 °C
Punto de rocío: -18.7 °C -17.8 °C -19 °C -18.3 °C
Humedad: 67 % Humidity % 54 % 61 %
Velocidad del Viento: 0 km/h 0 km/h 0 km/h 7.2 km/h
Ráfagas de viento: 0 km/h 0 km/h - -
Viento:Calm - - East
Pression baro: 34533.8 hPa 0 hPa 34533.8 hPa -
Précipitaciones: 0 mm      
Historical Graphs
 
 
Datos de tabla para Marzo 24, 2019
Tiempo Temperatura Punto de rocío Pression baro Viento Velocidad del Viento Ráfagas de viento Humedad Las precipitaciones Rate ( Hora )
-17.8 °C -17.8 °C 0 hPa Calm     Humidity % 0 mm
00:00 -13.3 °C -18.2 °C 34533.8 hPa NE 9 km/h 5.6 km/h 54 % 0 mm
00:05 -13.3 °C -18.1 °C 34533.8 hPa NNE 6 km/h 3.7 km/h 55 % 0 mm
00:10 -13.3 °C -17.8 °C 34533.8 hPa North 6 km/h 5 km/h 57 % 0 mm
00:15 -13.3 °C -17.8 °C 34533.8 hPa SW 3.1 km/h 0.5 km/h 57 % 0 mm
00:20 -13.3 °C -17.8 °C 34533.8 hPa ENE 9 km/h 5.5 km/h 57 % 0 mm
00:25 -13.3 °C -17.7 °C 34533.8 hPa Calm     58 % 0 mm
00:30 -13.9 °C -18.1 °C 34533.8 hPa NNE 9 km/h 6.3 km/h 59 % 0 mm
00:35 -13.9 °C -18.1 °C 34533.8 hPa NNE 9 km/h 6.9 km/h 59 % 0 mm
00:40 -13.9 °C -18.1 °C 34533.8 hPa NE 9 km/h 5 km/h 59 % 0 mm
00:45 -13.9 °C -17.9 °C 34533.8 hPa NE 6 km/h 3.4 km/h 60 % 0 mm
00:50 -13.9 °C -17.8 °C 34533.8 hPa ENE 9 km/h 7.7 km/h 61 % 0 mm
00:55 -13.9 °C -17.9 °C 34533.8 hPa ENE 9.7 km/h 6.4 km/h 60 % 0 mm
01:00 -13.9 °C -17.8 °C 34533.8 hPa NE 9 km/h 6.9 km/h 61 % 0 mm
01:05 -13.9 °C -17.9 °C 34533.8 hPa NE 9 km/h 7.2 km/h 60 % 0 mm
01:10 -13.9 °C -17.8 °C 34533.8 hPa NE 9 km/h 5.1 km/h 61 % 0 mm
01:15 -13.9 °C -17.8 °C 34533.8 hPa ENE 9.7 km/h 6.8 km/h 61 % 0 mm
01:20 -13.9 °C -17.7 °C 34533.8 hPa ENE 11.9 km/h 8.5 km/h 62 % 0 mm
01:25 -13.9 °C -17.7 °C 34533.8 hPa NE 9 km/h 6.3 km/h 62 % 0 mm
01:30 -14.4 °C -17.9 °C 34533.8 hPa NE 11.9 km/h 8.2 km/h 64 % 0 mm
01:35 -14.4 °C -18.1 °C 34533.8 hPa ESE 11.9 km/h 8.5 km/h 63 % 0 mm
01:40 -14.4 °C -18.3 °C 34533.8 hPa ENE 9 km/h 6.4 km/h 61 % 0 mm
01:45 -14.4 °C -18.2 °C 34533.8 hPa NE 9 km/h 6.3 km/h 62 % 0 mm
01:50 -14.4 °C -18.2 °C 34533.8 hPa NE 9 km/h 5.5 km/h 62 % 0 mm
01:55 -14.4 °C -18.2 °C 34533.8 hPa ENE 9 km/h 5.1 km/h 62 % 0 mm
02:00 -14.4 °C -18.2 °C 34533.8 hPa ENE 9 km/h 5.6 km/h 62 % 0 mm
02:05 -14.4 °C -18.1 °C 34533.8 hPa ENE 9 km/h 4.3 km/h 63 % 0 mm
02:10 -14.4 °C -17.9 °C 34533.8 hPa NE 9 km/h 5.1 km/h 64 % 0 mm
02:15 -14.4 °C -17.9 °C 34533.8 hPa North 6 km/h 3.9 km/h 64 % 0 mm
02:20 -14.4 °C -17.9 °C 34533.8 hPa ENE 6 km/h 2.9 km/h 64 % 0 mm
02:25 -14.4 °C -17.9 °C 34533.8 hPa NE 6 km/h 3.4 km/h 64 % 0 mm
02:30 -15 °C -18.4 °C 34533.8 hPa NE 6 km/h 4.7 km/h 65 % 0 mm
02:35 -15 °C -18.4 °C 34533.8 hPa NE 6 km/h 5 km/h 65 % 0 mm
02:40 -15 °C -18.4 °C 34533.8 hPa North 6.4 km/h 4.3 km/h 65 % 0 mm
02:45 -15 °C -18.2 °C 34533.8 hPa NE 6.4 km/h 5 km/h 66 % 0 mm
02:50 -15.6 °C -18.9 °C 34533.8 hPa ENE 9 km/h 6.9 km/h 65 % 0 mm
02:55 -15.6 °C -18.9 °C 34533.8 hPa ENE 9 km/h 5.6 km/h 65 % 0 mm
03:00 -15.6 °C -18.9 °C 34533.8 hPa NE 9 km/h 6 km/h 65 % 0 mm
03:05 -15.6 °C -18.9 °C 34533.8 hPa ENE 6 km/h 5.5 km/h 65 % 0 mm
03:10 -15.6 °C -19 °C 34533.8 hPa NE 11.9 km/h 6.8 km/h 64 % 0 mm
03:15 -15.6 °C -19 °C 34533.8 hPa NE 9 km/h 6.4 km/h 64 % 0 mm
03:20 -15.6 °C -19 °C 34533.8 hPa North 9 km/h 7.2 km/h 64 % 0 mm
03:25 -15.6 °C -19 °C 34533.8 hPa ENE 6 km/h 5 km/h 64 % 0 mm
03:30 -15.6 °C -19 °C 34533.8 hPa NE 6 km/h 4.3 km/h 64 % 0 mm
03:35 -15.6 °C -18.9 °C 34533.8 hPa NNW 6 km/h 3.4 km/h 65 % 0 mm
03:40 -15.6 °C -18.9 °C 34533.8 hPa NE 6 km/h 4.2 km/h 65 % 0 mm
03:45 -15.6 °C -18.9 °C 34533.8 hPa North 3.1 km/h 2.1 km/h 65 % 0 mm
03:50 -15.6 °C -18.9 °C 34533.8 hPa WNW 6 km/h 2.1 km/h 65 % 0 mm
03:55 -15.6 °C -18.7 °C 34533.8 hPa NE 6 km/h 2.1 km/h 67 % 0 mm
04:00 -15.6 °C -18.7 °C 34533.8 hPa NE 6 km/h 2.9 km/h 67 % 0 mm
04:05 -15.6 °C -18.7 °C 34533.8 hPa SW 3.1 km/h 0.3 km/h 67 % 0 mm
04:10 -15.6 °C -18.8 °C 34533.8 hPa Calm     66 % 0 mm
04:15 -15.6 °C -18.7 °C 34533.8 hPa Calm     67 % 0 mm
Alcoletge
Elogios de Weather Underground - 1.25 mb

Guión original por  Jim McMurry - jmcmurry@mwt.net Adaptado para la plantilla por  Wim van der Kuil - Leuven-Template.eu

Usted encontrará nuestra información del tiempo también en:

Weather Underground

Iberian Peninsula Weather Network